createdAt,value
2022-10-17T00:00:12.348Z,6.13
2022-10-17T00:02:38.857Z,12.82
2022-10-17T00:05:07.197Z,8.95
2022-10-17T00:07:33.797Z,6.40
2022-10-17T00:10:00.329Z,4.88
2022-10-17T00:12:26.848Z,8.57
2022-10-17T00:14:53.384Z,7.78
2022-10-17T00:17:19.908Z,4.70
2022-10-17T00:19:46.438Z,14.02
2022-10-17T00:22:14.659Z,5.40
2022-10-17T00:24:41.247Z,13.07
2022-10-17T00:27:07.979Z,7.15
2022-10-17T00:29:34.514Z,4.28
2022-10-17T00:32:01.081Z,4.10
2022-10-17T00:34:29.458Z,5.65
2022-10-17T00:36:55.967Z,5.65
2022-10-17T00:39:23.907Z,7.60
2022-10-17T00:41:50.712Z,7.28
2022-10-17T00:44:57.770Z,5.22
2022-10-17T00:47:24.417Z,5.97
2022-10-17T00:49:51.226Z,5.18
2022-10-17T00:52:21.212Z,5.15
2022-10-17T00:54:53.602Z,4.80
2022-10-17T00:57:20.414Z,4.93
2022-10-17T00:59:51.393Z,5.13
2022-10-17T01:02:20.337Z,4.95
2022-10-17T01:04:50.098Z,4.22
2022-10-17T01:07:16.798Z,4.10
2022-10-17T01:09:46.077Z,4.03
2022-10-17T01:12:19.919Z,3.95
2022-10-17T01:14:57.968Z,5.43
2022-10-17T01:17:32.760Z,5.75
2022-10-17T01:20:31.937Z,4.15
2022-10-17T01:23:17.986Z,5.88
2022-10-17T01:25:53.742Z,6.38
2022-10-17T01:31:21.212Z,5.70
2022-10-17T01:33:59.207Z,5.78
2022-10-17T01:36:38.101Z,6.60
2022-10-17T01:39:14.449Z,4.32
2022-10-17T01:41:46.705Z,5.93
2022-10-17T01:44:18.362Z,7.50
2022-10-17T01:46:50.230Z,4.57
2022-10-17T01:49:21.704Z,9.77
2022-10-17T01:51:52.689Z,7.78
2022-10-17T01:54:23.768Z,7.57
2022-10-17T01:56:56.526Z,5.75
2022-10-17T01:59:26.942Z,6.60
2022-10-17T02:01:57.567Z,5.93
2022-10-17T02:04:25.040Z,8.93
2022-10-17T02:06:51.569Z,8.25
2022-10-17T02:09:20.917Z,8.13
2022-10-17T02:11:58.701Z,5.82
2022-10-17T02:14:33.238Z,7.70
2022-10-17T02:17:09.122Z,6.18
2022-10-17T02:19:50.387Z,7.60
2022-10-17T02:22:24.438Z,5.60
2022-10-17T02:24:58.724Z,7.25
2022-10-17T02:27:34.369Z,6.28
2022-10-17T02:30:08.357Z,6.50
2022-10-17T02:32:45.439Z,8.18
2022-10-17T02:35:16.103Z,6.22
2022-10-17T02:37:44.243Z,8.67
2022-10-17T02:40:13.773Z,19.05
2022-10-17T02:42:43.702Z,7.40
2022-10-17T02:45:12.137Z,5.18
2022-10-17T02:47:49.545Z,5.78
2022-10-17T02:50:16.243Z,8.55
2022-10-17T02:52:48.265Z,6.28
2022-10-17T02:55:18.666Z,6.82
2022-10-17T02:57:48.550Z,6.47
2022-10-17T03:00:17.369Z,5.18
2022-10-17T03:02:47.608Z,4.75
2022-10-17T03:05:17.241Z,4.53
2022-10-17T03:07:43.772Z,4.60
2022-10-17T03:10:10.334Z,3.40
2022-10-17T03:12:36.982Z,4.32
2022-10-17T03:15:04.148Z,3.55
2022-10-17T03:17:31.066Z,6.13
2022-10-17T03:19:59.123Z,3.33
2022-10-17T03:22:25.678Z,3.05
2022-10-17T03:24:52.224Z,4.45
2022-10-17T03:27:18.777Z,5.13
2022-10-17T03:29:45.286Z,3.45
2022-10-17T03:32:11.865Z,6.72
2022-10-17T03:34:38.401Z,3.83
2022-10-17T03:37:06.348Z,3.72
2022-10-17T03:39:32.897Z,3.28
2022-10-17T03:41:59.421Z,4.40
2022-10-17T03:44:26.001Z,4.10
2022-10-17T03:46:52.537Z,3.42
2022-10-17T03:49:19.072Z,5.43
2022-10-17T03:51:45.624Z,3.03
2022-10-17T03:54:13.518Z,4.07
2022-10-17T03:56:40.190Z,4.30
2022-10-17T03:59:06.726Z,4.13
2022-10-17T04:01:33.292Z,3.50
2022-10-17T04:03:59.882Z,3.90
2022-10-17T04:06:26.546Z,7.30
2022-10-17T04:08:53.161Z,5.78
2022-10-17T04:11:21.419Z,6.20
2022-10-17T04:13:52.195Z,4.60
2022-10-17T04:16:18.843Z,7.68
2022-10-17T04:18:45.661Z,4.05
2022-10-17T04:21:13.206Z,6.05
2022-10-17T04:23:39.876Z,4.82
2022-10-17T04:26:06.982Z,8.82
2022-10-17T04:28:35.942Z,6.05
2022-10-17T04:31:04.988Z,4.88
2022-10-17T04:33:32.114Z,6.43
2022-10-17T04:35:59.670Z,4.57
2022-10-17T04:38:28.720Z,4.68
2022-10-17T04:40:57.247Z,4.82
2022-10-17T04:43:23.920Z,4.90
2022-10-17T04:45:51.876Z,4.88
2022-10-17T04:48:18.405Z,4.53
2022-10-17T04:50:53.349Z,4.50
2022-10-17T04:53:19.928Z,6.40
2022-10-17T04:55:46.505Z,9.85
2022-10-17T04:58:12.988Z,4.53
2022-10-17T05:00:39.597Z,6.32
2022-10-17T05:03:07.670Z,5.60
2022-10-17T05:05:37.048Z,7.38
2022-10-17T05:08:03.701Z,6.85
2022-10-17T05:10:30.266Z,6.10
2022-10-17T05:12:56.795Z,10.10
2022-10-17T05:15:23.296Z,5.55
2022-10-17T05:17:54.668Z,9.40
2022-10-17T05:20:22.563Z,9.00
2022-10-17T05:22:49.223Z,8.23
2022-10-17T05:25:16.133Z,7.47
2022-10-17T05:27:42.673Z,8.25
2022-10-17T05:30:10.013Z,12.07
2022-10-17T05:32:36.723Z,10.48
2022-10-17T05:35:04.264Z,11.60
2022-10-17T05:37:32.395Z,9.30
2022-10-17T05:39:58.939Z,9.57
2022-10-17T05:42:26.002Z,9.57
2022-10-17T05:44:52.669Z,7.93
2022-10-17T05:47:19.233Z,14.73
2022-10-17T05:49:50.071Z,9.05
2022-10-17T05:52:18.990Z,9.93
2022-10-17T05:54:46.922Z,8.55
2022-10-17T05:57:13.454Z,7.93
2022-10-17T05:59:39.985Z,13.80
2022-10-17T06:02:06.752Z,8.75
2022-10-17T06:04:33.627Z,11.52
2022-10-17T06:07:00.203Z,8.07
2022-10-17T06:09:26.872Z,7.60
2022-10-17T06:11:54.809Z,8.80
2022-10-17T06:14:21.316Z,9.43
2022-10-17T06:16:47.906Z,7.82
2022-10-17T06:19:14.453Z,9.55
2022-10-17T06:21:41.085Z,9.10
2022-10-17T06:24:07.605Z,8.07
2022-10-17T06:26:34.167Z,10.52
2022-10-17T06:29:02.152Z,6.32
2022-10-17T06:31:28.968Z,7.65
2022-10-17T06:33:55.540Z,6.63
2022-10-17T06:36:22.072Z,6.70
2022-10-17T06:38:48.659Z,6.65
2022-10-17T06:41:16.586Z,7.70
2022-10-17T06:43:44.360Z,7.40
2022-10-17T06:46:12.656Z,7.13
2022-10-17T06:48:39.357Z,7.90
2022-10-17T06:51:06.867Z,6.05
2022-10-17T06:53:34.557Z,8.10
2022-10-17T06:56:01.782Z,8.00
2022-10-17T06:58:28.387Z,8.52
2022-10-17T07:01:00.925Z,8.82
2022-10-17T07:03:29.344Z,8.50
2022-10-17T07:05:56.812Z,9.23
2022-10-17T07:08:23.843Z,9.73
2022-10-17T07:10:50.972Z,12.57
2022-10-17T07:13:17.714Z,10.27
2022-10-17T07:15:44.389Z,9.55
2022-10-17T07:18:11.057Z,8.15
2022-10-17T07:20:39.713Z,7.83
2022-10-17T07:23:06.844Z,8.45
2022-10-17T07:25:36.408Z,8.82
2022-10-17T07:28:05.891Z,8.00
2022-10-17T07:30:33.472Z,8.23
2022-10-17T07:33:00.004Z,8.70
2022-10-17T07:35:26.723Z,6.45
2022-10-17T07:37:54.661Z,9.73
2022-10-17T07:40:21.310Z,7.43
2022-10-17T07:42:47.880Z,6.03
2022-10-17T07:45:14.583Z,7.97
2022-10-17T07:47:41.237Z,5.63
2022-10-17T07:50:09.117Z,7.85
2022-10-17T07:52:35.763Z,8.13
2022-10-17T07:55:04.414Z,7.30
2022-10-17T07:57:30.970Z,7.77
2022-10-17T07:59:57.566Z,5.70
2022-10-17T08:02:26.212Z,9.30
2022-10-17T08:04:56.217Z,5.68
2022-10-17T08:07:26.855Z,7.10
2022-10-17T08:09:56.046Z,8.37
2022-10-17T08:12:23.997Z,8.18
2022-10-17T08:14:50.541Z,8.07
2022-10-17T08:17:20.848Z,7.85
2022-10-17T08:19:47.381Z,6.32
2022-10-17T08:22:13.925Z,7.53
2022-10-17T08:24:40.493Z,8.90
2022-10-17T08:27:08.751Z,6.93
2022-10-17T08:29:36.839Z,8.45
2022-10-17T08:32:05.446Z,8.63
2022-10-17T08:34:33.239Z,6.37
2022-10-17T08:36:59.826Z,7.13
2022-10-17T08:39:26.521Z,9.60
2022-10-17T08:42:03.304Z,6.18
2022-10-17T08:44:41.766Z,7.13
2022-10-17T08:47:12.646Z,7.00
2022-10-17T08:49:44.024Z,8.60
2022-10-17T08:52:18.602Z,8.38
2022-10-17T08:54:46.928Z,7.85
2022-10-17T08:57:15.297Z,8.52
2022-10-17T08:59:44.504Z,8.93
2022-10-17T09:02:30.726Z,8.52
2022-10-17T09:05:10.282Z,7.65
2022-10-17T09:07:43.322Z,10.02
2022-10-17T09:10:15.100Z,8.43
2022-10-17T09:12:49.931Z,8.47
2022-10-17T09:15:43.045Z,8.30
2022-10-17T09:18:12.867Z,8.05
2022-10-17T09:20:44.591Z,12.85
2022-10-17T09:23:15.855Z,9.85
2022-10-17T09:25:45.176Z,10.87
2022-10-17T09:28:22.008Z,7.65
2022-10-17T09:30:56.165Z,8.13
2022-10-17T09:33:42.361Z,8.70
2022-10-17T09:36:17.425Z,8.57
2022-10-17T09:38:47.426Z,7.23
2022-10-17T09:41:44.151Z,8.10
2022-10-17T09:44:20.723Z,7.22
2022-10-17T09:47:10.318Z,6.30
2022-10-17T09:49:41.733Z,8.35
2022-10-17T09:52:13.679Z,6.83
2022-10-17T09:54:43.779Z,7.20
2022-10-17T09:57:11.885Z,7.55
2022-10-17T09:59:40.621Z,10.30
2022-10-17T10:02:18.546Z,9.38
2022-10-17T10:05:03.792Z,8.33
2022-10-17T10:07:36.800Z,4.80
2022-10-17T10:10:05.908Z,6.13
2022-10-17T10:12:35.472Z,4.80
2022-10-17T10:15:02.179Z,4.82
2022-10-17T10:17:37.026Z,6.93
2022-10-17T10:20:25.444Z,6.78
2022-10-17T10:23:05.687Z,5.40
2022-10-17T10:25:32.398Z,5.55
2022-10-17T10:28:00.814Z,8.05
2022-10-17T10:30:32.082Z,5.83
2022-10-17T10:33:06.856Z,6.90
2022-10-17T10:35:44.856Z,6.65
2022-10-17T10:38:17.432Z,6.07
2022-10-17T10:40:47.219Z,4.72
2022-10-17T10:43:24.106Z,6.47
2022-10-17T10:45:52.040Z,6.05
2022-10-17T10:48:24.608Z,5.10
2022-10-17T10:50:56.056Z,6.18
2022-10-17T10:53:35.184Z,5.57
2022-10-17T10:56:08.330Z,5.83
2022-10-17T10:58:43.008Z,8.93
2022-10-17T11:01:15.672Z,7.72
2022-10-17T11:04:18.452Z,6.95
2022-10-17T11:06:46.054Z,3.92
2022-10-17T11:09:23.015Z,5.37
2022-10-17T11:11:55.702Z,6.82
2022-10-17T11:14:32.706Z,6.90
2022-10-17T11:17:06.861Z,10.75
2022-10-17T11:19:39.481Z,9.20
2022-10-17T11:22:12.607Z,5.50
2022-10-17T11:24:43.257Z,5.53
2022-10-17T11:27:10.029Z,5.03
2022-10-17T11:29:39.019Z,5.50
2022-10-17T11:32:11.233Z,6.40
2022-10-17T11:34:43.476Z,4.23
2022-10-17T11:37:15.868Z,4.85
2022-10-17T11:42:44.080Z,6.30
2022-10-17T11:45:16.847Z,5.00
2022-10-17T11:47:46.804Z,4.30
2022-10-17T11:53:14.310Z,4.75
2022-10-17T11:55:41.847Z,6.43
2022-10-17T11:58:20.339Z,5.80
2022-10-17T12:01:00.352Z,8.80
2022-10-17T12:03:37.680Z,4.50
2022-10-17T12:06:14.052Z,4.35
2022-10-17T12:08:49.588Z,6.78
2022-10-17T12:11:28.035Z,6.25
2022-10-17T12:13:56.013Z,5.47
2022-10-17T12:16:49.762Z,4.45
2022-10-17T12:19:30.993Z,6.50
2022-10-17T12:22:02.738Z,6.75
2022-10-17T12:24:41.854Z,10.80
2022-10-17T12:27:37.939Z,7.33
2022-10-17T12:30:20.609Z,5.20
2022-10-17T12:33:06.484Z,5.25
2022-10-17T12:35:35.638Z,5.40
2022-10-17T12:38:25.662Z,7.60
2022-10-17T12:41:04.027Z,4.63
2022-10-17T12:43:57.638Z,4.32
2022-10-17T12:46:49.539Z,4.53
2022-10-17T12:49:36.106Z,5.47
2022-10-17T12:52:25.211Z,8.25
2022-10-17T12:55:11.545Z,6.83
2022-10-17T12:57:46.859Z,5.05
2022-10-17T13:00:18.829Z,5.85
2022-10-17T13:02:46.108Z,6.72
2022-10-17T13:05:18.380Z,7.18
2022-10-17T13:07:48.414Z,7.13
2022-10-17T13:10:24.783Z,7.47
2022-10-17T13:12:57.598Z,6.25
2022-10-17T13:15:24.619Z,6.53
2022-10-17T13:17:58.926Z,5.88
2022-10-17T13:20:30.604Z,8.17
2022-10-17T13:22:58.735Z,5.28
2022-10-17T13:25:27.788Z,5.30
2022-10-17T13:28:06.116Z,6.75
2022-10-17T13:30:35.401Z,4.95
2022-10-17T13:33:02.893Z,5.47
2022-10-17T13:38:24.264Z,7.28
2022-10-17T13:40:58.016Z,5.43
2022-10-17T13:43:30.437Z,5.70
2022-10-17T13:46:13.793Z,5.73
2022-10-17T13:48:46.580Z,5.45
2022-10-17T13:51:13.717Z,5.95
2022-10-17T13:53:40.517Z,7.63
2022-10-17T13:56:34.478Z,7.05
2022-10-17T13:59:09.276Z,6.10
2022-10-17T14:01:38.116Z,7.32
2022-10-17T14:04:10.264Z,4.78
2022-10-17T14:06:44.985Z,5.18
2022-10-17T14:09:20.706Z,5.20
2022-10-17T14:11:59.609Z,6.57
2022-10-17T14:14:26.835Z,6.43
2022-10-17T14:16:53.961Z,7.03
2022-10-17T14:19:25.624Z,6.13
2022-10-17T14:21:53.676Z,5.72
2022-10-17T14:24:28.682Z,7.27
2022-10-17T14:26:58.722Z,8.43
2022-10-17T14:29:27.243Z,7.07
2022-10-17T14:32:00.099Z,4.40
2022-10-17T14:34:30.771Z,9.50
2022-10-17T14:36:57.658Z,6.17
2022-10-17T14:39:26.037Z,9.27
2022-10-17T14:41:53.429Z,4.57
2022-10-17T14:44:25.159Z,6.78
2022-10-17T14:46:57.243Z,8.13
2022-10-17T14:49:28.426Z,7.87
2022-10-17T14:52:20.538Z,5.63
2022-10-17T14:54:48.672Z,5.90
2022-10-17T14:57:18.129Z,8.27
2022-10-17T14:59:55.068Z,7.90
2022-10-17T15:02:23.417Z,7.53
2022-10-17T15:04:50.012Z,5.90
2022-10-17T15:07:17.641Z,6.40
2022-10-17T15:09:45.451Z,4.45
2022-10-17T15:12:15.035Z,7.63
2022-10-17T15:14:41.583Z,7.33
2022-10-17T15:17:13.770Z,4.57
2022-10-17T15:22:34.638Z,6.63
2022-10-17T15:25:01.568Z,5.82
2022-10-17T15:27:29.460Z,7.17
2022-10-17T15:29:56.163Z,6.65
2022-10-17T15:32:24.186Z,6.53
2022-10-17T15:34:50.817Z,6.05
2022-10-17T15:37:20.017Z,6.65
2022-10-17T15:39:49.373Z,8.23
2022-10-17T15:42:15.917Z,6.85
2022-10-17T15:44:42.530Z,6.47
2022-10-17T15:47:18.467Z,6.72
2022-10-17T15:49:46.414Z,4.97
2022-10-17T15:52:12.952Z,9.17
2022-10-17T15:54:39.602Z,7.03
2022-10-17T15:57:06.434Z,9.23
2022-10-17T15:59:34.947Z,7.65
2022-10-17T16:02:01.617Z,5.50
2022-10-17T16:04:28.133Z,7.37
2022-10-17T16:06:56.051Z,7.65
2022-10-17T16:09:22.580Z,6.00
2022-10-17T16:11:49.334Z,7.03
2022-10-17T16:14:16.646Z,7.43
2022-10-17T16:16:43.448Z,8.97
2022-10-17T16:19:10.035Z,7.40
2022-10-17T16:21:45.297Z,10.57
2022-10-17T16:24:13.270Z,10.45
2022-10-17T16:26:39.880Z,10.05
2022-10-17T16:29:06.869Z,8.90
2022-10-17T16:31:35.215Z,9.77
2022-10-17T16:34:03.383Z,11.52
2022-10-17T16:36:29.992Z,11.20
2022-10-17T16:38:56.690Z,8.43
2022-10-17T16:41:27.603Z,9.17
2022-10-17T16:43:56.087Z,11.50
2022-10-17T16:46:23.877Z,8.82
2022-10-17T16:48:50.799Z,9.50
2022-10-17T16:51:18.639Z,9.18
2022-10-17T16:53:45.880Z,10.23
2022-10-17T16:56:14.789Z,7.38
2022-10-17T16:58:43.004Z,8.73
2022-10-17T17:01:12.031Z,9.75
2022-10-17T17:03:40.335Z,8.05
2022-10-17T17:06:07.915Z,9.10
2022-10-17T17:08:35.525Z,8.43
2022-10-17T17:11:02.040Z,10.65
2022-10-17T17:13:29.136Z,8.15
2022-10-17T17:16:05.091Z,8.73
2022-10-17T17:18:31.650Z,8.30
2022-10-17T17:20:59.431Z,10.68
2022-10-17T17:23:26.246Z,10.05
2022-10-17T17:25:57.255Z,8.77
2022-10-17T17:28:27.104Z,8.90
2022-10-17T17:30:54.576Z,10.50
2022-10-17T17:33:23.260Z,15.90
2022-10-17T17:35:54.640Z,7.03
2022-10-17T17:38:21.789Z,6.93
2022-10-17T17:40:50.762Z,10.57
2022-10-17T17:43:20.286Z,8.63
2022-10-17T17:45:47.035Z,9.43
2022-10-17T17:48:20.646Z,9.73
2022-10-17T17:50:48.924Z,11.88
2022-10-17T17:53:16.675Z,7.97
2022-10-17T17:55:43.269Z,11.10
2022-10-17T17:58:09.957Z,11.80
2022-10-17T18:00:39.042Z,12.27
2022-10-17T18:03:05.668Z,11.85
2022-10-17T18:05:32.377Z,13.32
2022-10-17T18:08:00.348Z,13.37
2022-10-17T18:10:28.356Z,11.07
2022-10-17T18:12:54.996Z,9.45
2022-10-17T18:15:21.669Z,12.55
2022-10-17T18:17:48.295Z,9.05
2022-10-17T18:20:15.002Z,9.80
2022-10-17T18:22:41.739Z,8.90
2022-10-17T18:25:10.206Z,11.80
2022-10-17T18:27:43.658Z,8.65
2022-10-17T18:30:10.683Z,17.58
2022-10-17T18:32:37.276Z,8.67
2022-10-17T18:35:04.007Z,8.75
2022-10-17T18:37:30.601Z,10.80
2022-10-17T18:39:57.207Z,11.73
2022-10-17T18:42:25.243Z,11.52
2022-10-17T18:44:51.769Z,8.97
2022-10-17T18:47:18.375Z,11.50
2022-10-17T18:49:44.954Z,13.48
2022-10-17T18:52:11.651Z,12.63
2022-10-17T18:54:39.666Z,11.95
2022-10-17T18:57:06.557Z,11.57
2022-10-17T18:59:34.594Z,11.13
2022-10-17T19:02:01.195Z,9.95
2022-10-17T19:04:27.825Z,12.23
2022-10-17T19:06:54.478Z,15.80
2022-10-17T19:09:21.188Z,11.50
2022-10-17T19:11:52.728Z,9.65
2022-10-17T19:14:19.310Z,10.73
2022-10-17T19:16:49.321Z,15.95
2022-10-17T19:19:17.559Z,10.27
2022-10-17T19:21:44.522Z,11.63
2022-10-17T19:24:13.301Z,10.18
2022-10-17T19:26:42.825Z,11.23
2022-10-17T19:29:09.979Z,8.85
2022-10-17T19:31:36.743Z,9.80
2022-10-17T19:34:04.885Z,8.97
2022-10-17T19:36:33.444Z,9.85
2022-10-17T19:39:01.461Z,10.35
2022-10-17T19:41:28.358Z,10.82
2022-10-17T19:43:55.137Z,7.90
2022-10-17T19:46:23.248Z,9.87
2022-10-17T19:48:50.520Z,10.30
2022-10-17T19:51:20.572Z,10.05
2022-10-17T19:53:48.124Z,8.93
2022-10-17T19:56:14.877Z,9.05
2022-10-17T19:58:41.604Z,8.00
2022-10-17T20:01:08.232Z,9.10
2022-10-17T20:03:35.097Z,10.65
2022-10-17T20:06:02.024Z,12.38
2022-10-17T20:08:30.157Z,17.05
2022-10-17T20:10:56.736Z,12.70
2022-10-17T20:13:23.307Z,10.80
2022-10-17T20:15:57.135Z,10.68
2022-10-17T20:18:23.967Z,18.13
2022-10-17T20:20:50.655Z,14.95
2022-10-17T20:23:17.541Z,10.83
2022-10-17T20:25:47.597Z,12.23
2022-10-17T20:28:14.268Z,11.98
2022-10-17T20:30:43.959Z,14.98
2022-10-17T20:33:10.541Z,14.48
2022-10-17T20:35:41.243Z,14.93
2022-10-17T20:38:07.861Z,21.10
2022-10-17T20:40:35.564Z,18.88
2022-10-17T20:43:05.219Z,16.50
2022-10-17T20:45:50.688Z,12.35
2022-10-17T20:48:18.310Z,12.93
2022-10-17T20:50:45.104Z,11.13
2022-10-17T20:56:04.265Z,7.90
2022-10-17T20:58:32.328Z,7.60
2022-10-17T21:00:58.992Z,7.60
2022-10-17T21:03:25.707Z,12.35
2022-10-17T21:05:52.331Z,9.40
2022-10-17T21:08:21.090Z,10.25
2022-10-17T21:10:47.610Z,8.57
2022-10-17T21:13:14.358Z,9.67
2022-10-17T21:15:42.288Z,7.40
2022-10-17T21:18:08.840Z,8.50
2022-10-17T21:20:35.656Z,11.40
2022-10-17T21:23:02.360Z,10.85
2022-10-17T21:25:28.945Z,11.63
2022-10-17T21:27:55.473Z,12.98
2022-10-17T21:30:22.048Z,8.45
2022-10-17T21:32:53.486Z,11.02
2022-10-17T21:35:20.405Z,11.32
2022-10-17T21:37:47.120Z,11.40
2022-10-17T21:40:13.708Z,10.32
2022-10-17T21:42:41.514Z,12.63
2022-10-17T21:45:15.082Z,10.23
2022-10-17T21:48:11.254Z,9.93
2022-10-17T21:50:34.668Z,12.67
2022-10-17T21:53:01.181Z,13.18
2022-10-17T21:55:27.719Z,16.42
2022-10-17T21:57:54.271Z,12.25
2022-10-17T22:00:20.830Z,11.48
2022-10-17T22:02:47.374Z,11.27
2022-10-17T22:05:14.104Z,10.18
2022-10-17T22:07:42.006Z,12.38
2022-10-17T22:10:09.009Z,8.25
2022-10-17T22:12:35.517Z,10.88
2022-10-17T22:15:02.193Z,8.20
2022-10-17T22:17:28.958Z,11.32
2022-10-17T22:19:55.759Z,13.63
2022-10-17T22:22:22.358Z,11.60
2022-10-17T22:24:50.261Z,8.43
2022-10-17T22:27:16.789Z,12.00
2022-10-17T22:29:43.467Z,9.60
2022-10-17T22:32:10.057Z,7.38
2022-10-17T22:34:36.653Z,8.90
2022-10-17T22:37:03.212Z,14.85
2022-10-17T22:39:29.723Z,10.00
2022-10-17T22:41:57.652Z,10.50
2022-10-17T22:44:24.248Z,9.43
2022-10-17T22:46:50.784Z,14.48
2022-10-17T22:49:17.365Z,8.68
2022-10-17T22:51:44.028Z,13.10
2022-10-17T22:54:10.591Z,8.68
2022-10-17T22:56:37.160Z,13.65
2022-10-17T22:59:19.999Z,11.70
2022-10-17T23:01:46.677Z,11.15
2022-10-17T23:04:13.229Z,9.77
2022-10-17T23:06:39.743Z,11.73
2022-10-17T23:09:06.298Z,9.07
2022-10-17T23:11:32.915Z,10.38
2022-10-17T23:13:59.420Z,10.00
2022-10-17T23:16:27.318Z,11.00
2022-10-17T23:18:53.797Z,11.25
2022-10-17T23:21:20.418Z,11.63
2022-10-17T23:23:46.985Z,9.05
2022-10-17T23:26:14.471Z,6.75
2022-10-17T23:28:42.419Z,7.25
2022-10-17T23:31:11.240Z,6.22
2022-10-17T23:33:39.309Z,6.28
2022-10-17T23:36:06.849Z,8.60
2022-10-17T23:38:33.413Z,6.55
2022-10-17T23:40:59.923Z,5.55
2022-10-17T23:43:26.463Z,6.78
2022-10-17T23:45:53.013Z,7.22
2022-10-17T23:48:19.532Z,8.77
2022-10-17T23:50:47.429Z,6.60
2022-10-17T23:53:14.023Z,5.53
2022-10-17T23:55:40.607Z,6.55
2022-10-17T23:58:07.185Z,9.30
